Aérodrome :
LOGIN :

S'inscrire | Disclaimer

   EN    FR    IT 

 










Légende :    VFR   VFR Marginal   IFR   IFR Intensif   IFR Très Intensif
Visi : 
Plafond : 
>= 8 km
>= 3000ft
5 à 8 km
1000 à 3000 ft
1500m à 5 km
500 à 1000 ft
800 à 1500m
200 à 500 ft
< 800m
< 200 ft
Symboles :   Orages  Brouillard  Fortes neiges  Fortes précipitations  Vent > 20 kt
SIGMETs :   Divers  Orages  Givrage  Turbulence  Onde Orograph.  Cendres Volcan.






- Altitude de l'aérodrome : 102 ft
- Code IATA : EXT


EGTE - Exeter

DERNIER METAR :
  • 071420Z 13008KT CAVOK 15/04 Q1027

METARs EXPIRÉS :
  • 071350Z 12012KT CAVOK 16/05 Q1028
  • 071320Z 13010KT CAVOK 16/05 Q1027
  • 071250Z 12008KT 080V140 CAVOK 15/05 Q1028
  • 071220Z 14010KT CAVOK 16/05 Q1028
  • 071150Z 13011KT CAVOK 14/04 Q1028

TAF COR TAF EGTE
Valide du 07 à 12h jusqu'au 07 à 16h UTC


071122Z 0712/0716 12010KT 9999 SCT030



MET'MAP, la Météo Aéronautique d'un coup d'oeil ! - Copyright ORBIFLY Décembre 2007 - Disclaimer

ORBIFLY MET'MAP TEAM :

Programmation & Développement : Alexandra Zaïnal
Sur une idée originale de : Baudouin d'Aumeries
Assistance à la programmation : Marc-Olivier Méhu
Soutien technique & logistique : Manuel Goepfert

Contact : metmap@orbifly.com




SOURCES & CREDITS :

   NOAA